sensor_id;sensor_type;location;lat;lon;timestamp;pressure;altitude;pressure_sealevel;temperature;humidity
37710;BME280;60223;34.854;-92.408;2023-05-01T00:01:42;99879.61;;;25.51;27.09
37710;BME280;60223;34.854;-92.408;2023-05-01T00:04:06;99883.93;;;25.85;27.04
37710;BME280;60223;34.854;-92.408;2023-05-01T00:06:33;99882.98;;;25.57;27.11
37710;BME280;60223;34.854;-92.408;2023-05-01T00:08:58;99883.35;;;25.56;27.09
37710;BME280;60223;34.854;-92.408;2023-05-01T00:11:25;99881.91;;;25.62;27.07
37710;BME280;60223;34.854;-92.408;2023-05-01T00:13:50;99882.76;;;25.92;27.06
37710;BME280;60223;34.854;-92.408;2023-05-01T00:16:16;99886.66;;;25.83;27.14
37710;BME280;60223;34.854;-92.408;2023-05-01T00:18:39;99888.36;;;25.36;27.36
37710;BME280;60223;34.854;-92.408;2023-05-01T00:21:06;99883.91;;;25.15;27.91
37710;BME280;60223;34.854;-92.408;2023-05-01T00:23:32;99888.99;;;24.89;27.93
37710;BME280;60223;34.854;-92.408;2023-05-01T00:25:58;99892.52;;;25.05;27.75
37710;BME280;60223;34.854;-92.408;2023-05-01T00:28:24;99892.33;;;25.18;27.58
37710;BME280;60223;34.854;-92.408;2023-05-01T00:30:50;99892.81;;;25.06;27.71
37710;BME280;60223;34.854;-92.408;2023-05-01T00:33:14;99893.84;;;25.12;27.65
37710;BME280;60223;34.854;-92.408;2023-05-01T00:35:42;99896.57;;;25.00;27.85
37710;BME280;60223;34.854;-92.408;2023-05-01T00:38:06;99901.27;;;25.44;27.63
37710;BME280;60223;34.854;-92.408;2023-05-01T00:40:32;99906.04;;;25.04;27.83
37710;BME280;60223;34.854;-92.408;2023-05-01T00:42:57;99909.87;;;25.33;27.81
37710;BME280;60223;34.854;-92.408;2023-05-01T00:45:26;99912.46;;;25.54;27.59
37710;BME280;60223;34.854;-92.408;2023-05-01T00:47:49;99915.01;;;25.44;27.70
37710;BME280;60223;34.854;-92.408;2023-05-01T00:50:15;99920.37;;;25.35;27.80
37710;BME280;60223;34.854;-92.408;2023-05-01T00:52:39;99922.60;;;25.39;27.55
37710;BME280;60223;34.854;-92.408;2023-05-01T00:55:05;99924.33;;;25.51;27.51
37710;BME280;60223;34.854;-92.408;2023-05-01T00:57:31;99925.67;;;25.40;27.58
37710;BME280;60223;34.854;-92.408;2023-05-01T00:59:55;99927.24;;;25.39;27.57
37710;BME280;60223;34.854;-92.408;2023-05-01T01:02:22;99928.33;;;25.61;27.63
37710;BME280;60223;34.854;-92.408;2023-05-01T01:04:48;99930.49;;;25.35;27.63
37710;BME280;60223;34.854;-92.408;2023-05-01T01:07:18;99927.34;;;25.66;27.61
37710;BME280;60223;34.854;-92.408;2023-05-01T01:09:45;99934.28;;;25.47;27.58
37710;BME280;60223;34.854;-92.408;2023-05-01T01:12:13;99937.07;;;25.25;27.69
37710;BME280;60223;34.854;-92.408;2023-05-01T01:14:38;99939.67;;;25.26;27.80
37710;BME280;60223;34.854;-92.408;2023-05-01T01:17:02;99943.81;;;25.10;27.90
37710;BME280;60223;34.854;-92.408;2023-05-01T01:19:40;99948.55;;;25.44;27.78
37710;BME280;60223;34.854;-92.408;2023-05-01T01:21:49;99948.60;;;25.39;27.82
37710;BME280;60223;34.854;-92.408;2023-05-01T01:24:25;99953.11;;;25.33;27.90
37710;BME280;60223;34.854;-92.408;2023-05-01T01:31:38;99964.39;;;25.07;27.93
37710;BME280;60223;34.854;-92.408;2023-05-01T01:34:01;99967.35;;;25.49;27.74
37710;BME280;60223;34.854;-92.408;2023-05-01T01:36:26;99971.75;;;25.36;27.65
37710;BME280;60223;34.854;-92.408;2023-05-01T01:38:52;99977.17;;;25.56;27.75
37710;BME280;60223;34.854;-92.408;2023-05-01T01:41:13;99982.54;;;25.65;27.61
37710;BME280;60223;34.854;-92.408;2023-05-01T01:43:46;99984.35;;;25.38;27.66
37710;BME280;60223;34.854;-92.408;2023-05-01T01:46:06;99985.99;;;25.80;27.43
37710;BME280;60223;34.854;-92.408;2023-05-01T01:48:33;99985.43;;;25.25;28.01
37710;BME280;60223;34.854;-92.408;2023-05-01T01:50:56;99987.83;;;25.13;27.95
37710;BME280;60223;34.854;-92.408;2023-05-01T01:53:22;99988.25;;;25.29;27.98
37710;BME280;60223;34.854;-92.408;2023-05-01T01:55:46;99991.30;;;24.96;28.08
37710;BME280;60223;34.854;-92.408;2023-05-01T01:58:13;99991.23;;;25.11;27.95
37710;BME280;60223;34.854;-92.408;2023-05-01T02:00:38;99994.84;;;25.14;28.12
37710;BME280;60223;34.854;-92.408;2023-05-01T02:03:04;99999.25;;;25.19;28.07
37710;BME280;60223;34.854;-92.408;2023-05-01T02:05:29;100001.24;;;25.09;28.22
37710;BME280;60223;34.854;-92.408;2023-05-01T02:07:55;100005.74;;;24.74;28.33
37710;BME280;60223;34.854;-92.408;2023-05-01T02:10:20;100006.14;;;25.07;28.23
37710;BME280;60223;34.854;-92.408;2023-05-01T02:12:47;100013.60;;;24.91;28.18
37710;BME280;60223;34.854;-92.408;2023-05-01T02:15:12;100021.22;;;25.23;28.11
37710;BME280;60223;34.854;-92.408;2023-05-01T02:17:38;100027.42;;;25.09;28.21
37710;BME280;60223;34.854;-92.408;2023-05-01T02:20:03;100031.93;;;25.04;28.28
37710;BME280;60223;34.854;-92.408;2023-05-01T02:22:29;100038.12;;;24.86;28.24
37710;BME280;60223;34.854;-92.408;2023-05-01T02:24:54;100044.79;;;24.97;28.38
37710;BME280;60223;34.854;-92.408;2023-05-01T02:27:23;100048.43;;;24.78;28.33
37710;BME280;60223;34.854;-92.408;2023-05-01T02:29:45;100048.94;;;24.80;28.29
37710;BME280;60223;34.854;-92.408;2023-05-01T02:32:11;100052.04;;;24.56;28.29
37710;BME280;60223;34.854;-92.408;2023-05-01T02:34:37;100056.04;;;25.08;28.28
37710;BME280;60223;34.854;-92.408;2023-05-01T02:37:03;100055.85;;;24.88;28.22
37710;BME280;60223;34.854;-92.408;2023-05-01T02:39:28;100057.54;;;25.02;28.34
37710;BME280;60223;34.854;-92.408;2023-05-01T02:41:55;100058.17;;;25.00;28.37
37710;BME280;60223;34.854;-92.408;2023-05-01T02:44:20;100061.72;;;25.05;28.30
37710;BME280;60223;34.854;-92.408;2023-05-01T02:46:45;100067.95;;;24.78;28.33
37710;BME280;60223;34.854;-92.408;2023-05-01T02:49:11;100069.34;;;24.98;28.35
37710;BME280;60223;34.854;-92.408;2023-05-01T02:51:36;100072.96;;;25.11;28.25
37710;BME280;60223;34.854;-92.408;2023-05-01T02:54:02;100076.12;;;24.88;28.24
37710;BME280;60223;34.854;-92.408;2023-05-01T02:56:29;100078.21;;;25.14;28.23
37710;BME280;60223;34.854;-92.408;2023-05-01T02:58:53;100084.02;;;24.80;28.32
37710;BME280;60223;34.854;-92.408;2023-05-01T03:01:19;100086.25;;;24.97;28.38
37710;BME280;60223;34.854;-92.408;2023-05-01T03:03:44;100086.22;;;24.94;28.41
37710;BME280;60223;34.854;-92.408;2023-05-01T03:06:10;100083.78;;;24.77;28.58
37710;BME280;60223;34.854;-92.408;2023-05-01T03:08:36;100088.03;;;25.38;28.25
37710;BME280;60223;34.854;-92.408;2023-05-01T03:11:03;100088.29;;;25.11;28.02
37710;BME280;60223;34.854;-92.408;2023-05-01T03:13:27;100087.46;;;24.91;28.25
37710;BME280;60223;34.854;-92.408;2023-05-01T03:15:52;100094.84;;;25.63;27.74
37710;BME280;60223;34.854;-92.408;2023-05-01T03:18:18;100098.58;;;25.44;28.14
37710;BME280;60223;34.854;-92.408;2023-05-01T03:20:51;100100.74;;;25.52;27.63
37710;BME280;60223;34.854;-92.408;2023-05-01T03:23:10;100101.19;;;25.22;27.81
37710;BME280;60223;34.854;-92.408;2023-05-01T03:25:36;100100.80;;;25.18;28.15
37710;BME280;60223;34.854;-92.408;2023-05-01T03:27:58;100102.46;;;25.25;27.84
37710;BME280;60223;34.854;-92.408;2023-05-01T03:30:27;100106.19;;;25.23;27.83
37710;BME280;60223;34.854;-92.408;2023-05-01T03:32:52;100112.19;;;25.36;27.63
37710;BME280;60223;34.854;-92.408;2023-05-01T03:35:18;100117.57;;;25.91;27.31
37710;BME280;60223;34.854;-92.408;2023-05-01T03:37:43;100118.47;;;25.32;27.65
37710;BME280;60223;34.854;-92.408;2023-05-01T03:40:11;100117.21;;;25.32;27.63
37710;BME280;60223;34.854;-92.408;2023-05-01T03:42:35;100117.94;;;25.48;27.68
37710;BME280;60223;34.854;-92.408;2023-05-01T03:45:00;100119.68;;;25.52;27.63
37710;BME280;60223;34.854;-92.408;2023-05-01T03:47:26;100117.65;;;25.30;27.60
37710;BME280;60223;34.854;-92.408;2023-05-01T03:49:51;100120.32;;;25.20;27.67
37710;BME280;60223;34.854;-92.408;2023-05-01T03:52:18;100123.29;;;25.57;27.33
37710;BME280;60223;34.854;-92.408;2023-05-01T03:54:43;100122.67;;;25.87;27.47
37710;BME280;60223;34.854;-92.408;2023-05-01T03:57:09;100126.09;;;25.39;27.47
37710;BME280;60223;34.854;-92.408;2023-05-01T03:59:33;100126.95;;;25.52;27.55
37710;BME280;60223;34.854;-92.408;2023-05-01T04:02:00;100125.01;;;25.37;27.48
37710;BME280;60223;34.854;-92.408;2023-05-01T04:04:26;100124.06;;;25.41;27.40
37710;BME280;60223;34.854;-92.408;2023-05-01T04:06:51;100123.10;;;25.62;27.40
37710;BME280;60223;34.854;-92.408;2023-05-01T04:09:14;100120.62;;;25.61;27.40
37710;BME280;60223;34.854;-92.408;2023-05-01T04:11:43;100119.76;;;25.56;27.42
37710;BME280;60223;34.854;-92.408;2023-05-01T04:14:08;100122.75;;;25.29;27.44
37710;BME280;60223;34.854;-92.408;2023-05-01T04:16:34;100119.76;;;25.31;27.65
37710;BME280;60223;34.854;-92.408;2023-05-01T04:19:00;100119.20;;;25.08;27.83
37710;BME280;60223;34.854;-92.408;2023-05-01T04:21:24;100121.34;;;25.11;27.80
37710;BME280;60223;34.854;-92.408;2023-05-01T04:23:52;100122.58;;;25.28;27.61
37710;BME280;60223;34.854;-92.408;2023-05-01T04:26:17;100122.47;;;25.12;27.76
37710;BME280;60223;34.854;-92.408;2023-05-01T04:28:42;100126.61;;;24.92;27.96
37710;BME280;60223;34.854;-92.408;2023-05-01T04:31:08;100128.56;;;24.88;28.01
37710;BME280;60223;34.854;-92.408;2023-05-01T04:33:33;100127.34;;;24.71;27.93
37710;BME280;60223;34.854;-92.408;2023-05-01T04:35:58;100128.18;;;24.78;28.05
37710;BME280;60223;34.854;-92.408;2023-05-01T04:38:25;100130.03;;;24.83;28.24
37710;BME280;60223;34.854;-92.408;2023-05-01T04:40:50;100130.82;;;24.99;28.05
37710;BME280;60223;34.854;-92.408;2023-05-01T04:43:16;100125.92;;;24.97;28.08
37710;BME280;60223;34.854;-92.408;2023-05-01T04:45:41;100131.39;;;24.78;28.02
37710;BME280;60223;34.854;-92.408;2023-05-01T04:48:06;100128.08;;;25.08;27.96
37710;BME280;60223;34.854;-92.408;2023-05-01T04:50:33;100126.18;;;24.70;28.04
37710;BME280;60223;34.854;-92.408;2023-05-01T04:52:59;100124.64;;;25.33;27.64
37710;BME280;60223;34.854;-92.408;2023-05-01T04:55:25;100129.78;;;24.62;27.83
37710;BME280;60223;34.854;-92.408;2023-05-01T04:57:50;100128.91;;;25.18;27.72
37710;BME280;60223;34.854;-92.408;2023-05-01T05:00:14;100130.90;;;24.88;27.76
37710;BME280;60223;34.854;-92.408;2023-05-01T05:02:41;100131.95;;;24.80;27.83
37710;BME280;60223;34.854;-92.408;2023-05-01T05:05:07;100130.34;;;24.46;28.11
37710;BME280;60223;34.854;-92.408;2023-05-01T05:07:33;100129.71;;;24.82;27.99
37710;BME280;60223;34.854;-92.408;2023-05-01T05:09:58;100129.41;;;24.86;27.92
37710;BME280;60223;34.854;-92.408;2023-05-01T05:12:24;100126.93;;;24.56;28.19
37710;BME280;60223;34.854;-92.408;2023-05-01T05:14:50;100126.17;;;24.57;28.18
37710;BME280;60223;34.854;-92.408;2023-05-01T05:17:16;100126.00;;;24.25;28.47
37710;BME280;60223;34.854;-92.408;2023-05-01T05:19:40;100122.85;;;24.16;28.34
37710;BME280;60223;34.854;-92.408;2023-05-01T05:22:07;100125.37;;;24.25;28.49
37710;BME280;60223;34.854;-92.408;2023-05-01T05:24:32;100125.56;;;24.22;28.52
37710;BME280;60223;34.854;-92.408;2023-05-01T05:26:58;100123.40;;;24.34;28.41
37710;BME280;60223;34.854;-92.408;2023-05-01T05:29:22;100121.03;;;24.22;28.51
37710;BME280;60223;34.854;-92.408;2023-05-01T05:31:49;100124.94;;;24.32;28.63
37710;BME280;60223;34.854;-92.408;2023-05-01T05:34:15;100123.54;;;24.23;28.48
37710;BME280;60223;34.854;-92.408;2023-05-01T05:36:41;100122.24;;;24.14;28.55
37710;BME280;60223;34.854;-92.408;2023-05-01T05:39:05;100120.86;;;24.17;28.50
37710;BME280;60223;34.854;-92.408;2023-05-01T05:41:32;100115.43;;;23.91;28.52
37710;BME280;60223;34.854;-92.408;2023-05-01T05:43:58;100116.07;;;24.18;28.50
37710;BME280;60223;34.854;-92.408;2023-05-01T05:46:23;100116.67;;;24.12;28.55
37710;BME280;60223;34.854;-92.408;2023-05-01T05:48:47;100119.61;;;23.81;28.62
37710;BME280;60223;34.854;-92.408;2023-05-01T05:51:15;100119.54;;;24.18;28.51
37710;BME280;60223;34.854;-92.408;2023-05-01T05:53:40;100122.47;;;23.84;28.59
37710;BME280;60223;34.854;-92.408;2023-05-01T05:56:06;100124.98;;;24.00;28.66
37710;BME280;60223;34.854;-92.408;2023-05-01T05:58:30;100125.43;;;24.06;28.59
37710;BME280;60223;34.854;-92.408;2023-05-01T06:00:57;100126.31;;;24.14;28.48
37710;BME280;60223;34.854;-92.408;2023-05-01T06:03:23;100125.84;;;24.18;28.48
37710;BME280;60223;34.854;-92.408;2023-05-01T06:05:49;100126.07;;;24.14;28.46
37710;BME280;60223;34.854;-92.408;2023-05-01T06:08:14;100121.92;;;24.11;28.48
37710;BME280;60223;34.854;-92.408;2023-05-01T06:10:38;100122.84;;;23.85;28.74
37710;BME280;60223;34.854;-92.408;2023-05-01T06:13:06;100127.38;;;24.12;28.45
37710;BME280;60223;34.854;-92.408;2023-05-01T06:15:31;100129.68;;;23.94;28.59
37710;BME280;60223;34.854;-92.408;2023-05-01T06:17:57;100131.49;;;23.96;28.55
37710;BME280;60223;34.854;-92.408;2023-05-01T06:20:23;100131.63;;;23.94;28.56
37710;BME280;60223;34.854;-92.408;2023-05-01T06:22:48;100133.45;;;23.91;28.59
37710;BME280;60223;34.854;-92.408;2023-05-01T06:25:14;100134.04;;;24.02;28.46
37710;BME280;60223;34.854;-92.408;2023-05-01T06:27:40;100136.70;;;24.29;28.66
37710;BME280;60223;34.854;-92.408;2023-05-01T06:30:06;100131.89;;;23.87;28.57
37710;BME280;60223;34.854;-92.408;2023-05-01T06:32:31;100127.70;;;23.94;28.49
37710;BME280;60223;34.854;-92.408;2023-05-01T06:34:57;100127.23;;;23.86;28.56
37710;BME280;60223;34.854;-92.408;2023-05-01T06:37:22;100125.33;;;23.71;28.69
37710;BME280;60223;34.854;-92.408;2023-05-01T06:39:48;100128.06;;;23.84;28.56
37710;BME280;60223;34.854;-92.408;2023-05-01T06:42:12;100127.86;;;23.65;28.69
37710;BME280;60223;34.854;-92.408;2023-05-01T06:44:39;100128.15;;;23.88;28.45
37710;BME280;60223;34.854;-92.408;2023-05-01T06:47:04;100128.71;;;23.56;28.78
37710;BME280;60223;34.854;-92.408;2023-05-01T06:49:31;100130.22;;;23.95;28.60
37710;BME280;60223;34.854;-92.408;2023-05-01T06:51:57;100128.00;;;23.74;28.57
37710;BME280;60223;34.854;-92.408;2023-05-01T06:54:22;100129.54;;;23.86;28.66
37710;BME280;60223;34.854;-92.408;2023-05-01T06:56:48;100129.01;;;23.51;28.74
37710;BME280;60223;34.854;-92.408;2023-05-01T06:59:13;100134.06;;;23.66;28.57
37710;BME280;60223;34.854;-92.408;2023-05-01T07:01:39;100135.07;;;23.85;28.61
37710;BME280;60223;34.854;-92.408;2023-05-01T07:04:04;100135.63;;;23.83;28.38
37710;BME280;60223;34.854;-92.408;2023-05-01T07:06:30;100135.32;;;23.73;28.46
37710;BME280;60223;34.854;-92.408;2023-05-01T07:08:56;100134.13;;;24.25;28.42
37710;BME280;60223;34.854;-92.408;2023-05-01T07:11:22;100132.68;;;23.71;28.44
37710;BME280;60223;34.854;-92.408;2023-05-01T07:13:47;100131.50;;;23.60;28.52
37710;BME280;60223;34.854;-92.408;2023-05-01T07:16:13;100131.39;;;23.45;28.63
37710;BME280;60223;34.854;-92.408;2023-05-01T07:18:36;100133.75;;;23.52;28.56
37710;BME280;60223;34.854;-92.408;2023-05-01T07:21:05;100134.80;;;23.52;28.51
37710;BME280;60223;34.854;-92.408;2023-05-01T07:23:30;100132.64;;;24.02;28.51
37710;BME280;60223;34.854;-92.408;2023-05-01T07:25:56;100133.41;;;24.05;28.43
37710;BME280;60223;34.854;-92.408;2023-05-01T07:28:21;100133.30;;;23.89;28.58
37710;BME280;60223;34.854;-92.408;2023-05-01T07:30:47;100132.06;;;23.76;28.70
37710;BME280;60223;34.854;-92.408;2023-05-01T07:33:13;100131.97;;;23.47;28.48
37710;BME280;60223;34.854;-92.408;2023-05-01T07:35:39;100135.68;;;24.11;28.33
37710;BME280;60223;34.854;-92.408;2023-05-01T07:38:03;100137.95;;;23.46;28.43
37710;BME280;60223;34.854;-92.408;2023-05-01T07:40:31;100136.01;;;23.70;28.43
37710;BME280;60223;34.854;-92.408;2023-05-01T07:42:55;100136.81;;;23.55;28.35
37710;BME280;60223;34.854;-92.408;2023-05-01T07:45:22;100136.69;;;23.93;28.43
37710;BME280;60223;34.854;-92.408;2023-05-01T07:47:47;100135.66;;;23.36;28.49
37710;BME280;60223;34.854;-92.408;2023-05-01T07:50:13;100136.62;;;23.43;28.40
37710;BME280;60223;34.854;-92.408;2023-05-01T07:52:38;100134.95;;;23.66;28.41
37710;BME280;60223;34.854;-92.408;2023-05-01T07:55:04;100137.07;;;23.77;28.29
37710;BME280;60223;34.854;-92.408;2023-05-01T07:57:30;100134.70;;;23.48;28.31
37710;BME280;60223;34.854;-92.408;2023-05-01T07:59:56;100132.49;;;23.57;28.22
37710;BME280;60223;34.854;-92.408;2023-05-01T08:02:21;100131.93;;;23.40;28.35
37710;BME280;60223;34.854;-92.408;2023-05-01T08:04:47;100135.35;;;23.43;28.31
37710;BME280;60223;34.854;-92.408;2023-05-01T08:07:12;100137.34;;;23.97;28.23
37710;BME280;60223;34.854;-92.408;2023-05-01T08:09:38;100138.09;;;23.62;28.30
37710;BME280;60223;34.854;-92.408;2023-05-01T08:12:03;100142.25;;;23.52;28.39
37710;BME280;60223;34.854;-92.408;2023-05-01T08:14:29;100147.25;;;23.23;28.38
37710;BME280;60223;34.854;-92.408;2023-05-01T08:16:55;100146.54;;;23.37;28.20
37710;BME280;60223;34.854;-92.408;2023-05-01T08:19:21;100148.72;;;23.17;28.41
37710;BME280;60223;34.854;-92.408;2023-05-01T08:21:45;100147.89;;;23.61;28.40
37710;BME280;60223;34.854;-92.408;2023-05-01T08:24:12;100147.59;;;23.53;28.22
37710;BME280;60223;34.854;-92.408;2023-05-01T08:26:38;100146.03;;;23.64;28.10
37710;BME280;60223;34.854;-92.408;2023-05-01T08:29:03;100143.65;;;23.65;28.05
37710;BME280;60223;34.854;-92.408;2023-05-01T08:31:29;100144.79;;;23.38;28.32
37710;BME280;60223;34.854;-92.408;2023-05-01T08:33:53;100144.71;;;23.28;28.15
37710;BME280;60223;34.854;-92.408;2023-05-01T08:36:21;100143.77;;;23.63;28.06
37710;BME280;60223;34.854;-92.408;2023-05-01T08:38:46;100147.01;;;23.58;28.05
37710;BME280;60223;34.854;-92.408;2023-05-01T08:41:14;100151.01;;;23.90;27.96
37710;BME280;60223;34.854;-92.408;2023-05-01T08:43:36;100151.26;;;23.29;28.08
37710;BME280;60223;34.854;-92.408;2023-05-01T08:46:04;100151.41;;;23.32;28.27
37710;BME280;60223;34.854;-92.408;2023-05-01T08:48:51;100154.96;;;23.75;28.06
37710;BME280;60223;34.854;-92.408;2023-05-01T08:50:55;100153.39;;;23.22;28.13
37710;BME280;60223;34.854;-92.408;2023-05-01T08:53:21;100150.35;;;23.15;28.15
37710;BME280;60223;34.854;-92.408;2023-05-01T08:55:46;100152.13;;;23.30;28.00
37710;BME280;60223;34.854;-92.408;2023-05-01T08:58:12;100149.46;;;23.39;28.12
37710;BME280;60223;34.854;-92.408;2023-05-01T09:00:38;100146.91;;;23.59;28.07
37710;BME280;60223;34.854;-92.408;2023-05-01T09:03:04;100147.41;;;23.01;28.16
37710;BME280;60223;34.854;-92.408;2023-05-01T09:05:30;100149.22;;;22.93;28.24
37710;BME280;60223;34.854;-92.408;2023-05-01T09:07:54;100148.21;;;23.23;28.40
37710;BME280;60223;34.854;-92.408;2023-05-01T09:10:19;100148.19;;;23.31;28.29
37710;BME280;60223;34.854;-92.408;2023-05-01T09:12:48;100147.46;;;22.88;28.18
37710;BME280;60223;34.854;-92.408;2023-05-01T09:15:11;100151.84;;;23.68;28.12
37710;BME280;60223;34.854;-92.408;2023-05-01T09:17:37;100149.35;;;23.65;28.12
37710;BME280;60223;34.854;-92.408;2023-05-01T09:20:04;100151.44;;;23.70;27.80
37710;BME280;60223;34.854;-92.408;2023-05-01T09:22:28;100157.43;;;23.46;28.06
37710;BME280;60223;34.854;-92.408;2023-05-01T09:24:53;100159.22;;;23.35;27.90
37710;BME280;60223;34.854;-92.408;2023-05-01T09:27:20;100159.80;;;23.26;27.95
37710;BME280;60223;34.854;-92.408;2023-05-01T09:29:47;100160.90;;;23.45;27.99
37710;BME280;60223;34.854;-92.408;2023-05-01T09:32:17;100161.98;;;23.80;27.62
37710;BME280;60223;34.854;-92.408;2023-05-01T09:34:37;100167.22;;;23.64;27.79
37710;BME280;60223;34.854;-92.408;2023-05-01T09:37:02;100165.78;;;23.74;27.64
37710;BME280;60223;34.854;-92.408;2023-05-01T09:39:27;100160.58;;;23.46;27.91
37710;BME280;60223;34.854;-92.408;2023-05-01T09:41:54;100161.19;;;23.34;27.76
37710;BME280;60223;34.854;-92.408;2023-05-01T09:44:21;100160.06;;;23.44;27.90
37710;BME280;60223;34.854;-92.408;2023-05-01T09:46:45;100161.25;;;23.43;27.91
37710;BME280;60223;34.854;-92.408;2023-05-01T09:49:11;100161.12;;;23.06;28.01
37710;BME280;60223;34.854;-92.408;2023-05-01T09:51:35;100160.32;;;23.19;27.82
37710;BME280;60223;34.854;-92.408;2023-05-01T09:54:04;100161.44;;;23.36;27.85
37710;BME280;60223;34.854;-92.408;2023-05-01T09:56:28;100160.89;;;23.38;27.78
37710;BME280;60223;34.854;-92.408;2023-05-01T09:58:54;100157.72;;;23.22;27.94
37710;BME280;60223;34.854;-92.408;2023-05-01T10:01:36;100159.32;;;22.98;27.91
37710;BME280;60223;34.854;-92.408;2023-05-01T10:06:09;100158.13;;;23.37;27.71
37710;BME280;60223;34.854;-92.408;2023-05-01T10:08:46;100154.82;;;23.23;27.87
37710;BME280;60223;34.854;-92.408;2023-05-01T10:11:05;100158.32;;;23.40;27.68
37710;BME280;60223;34.854;-92.408;2023-05-01T10:13:28;100160.47;;;23.19;27.62
37710;BME280;60223;34.854;-92.408;2023-05-01T10:15:53;100157.74;;;23.24;27.80
37710;BME280;60223;34.854;-92.408;2023-05-01T10:18:20;100160.35;;;23.78;27.50
37710;BME280;60223;34.854;-92.408;2023-05-01T10:20:43;100158.86;;;23.15;27.61
37710;BME280;60223;34.854;-92.408;2023-05-01T10:23:10;100160.31;;;23.56;27.41
37710;BME280;60223;34.854;-92.408;2023-05-01T10:25:36;100154.63;;;23.36;27.60
37710;BME280;60223;34.854;-92.408;2023-05-01T10:28:05;100155.71;;;23.32;27.61
37710;BME280;60223;34.854;-92.408;2023-05-01T10:30:27;100160.20;;;23.59;27.30
37710;BME280;60223;34.854;-92.408;2023-05-01T10:32:54;100160.65;;;23.46;27.42
37710;BME280;60223;34.854;-92.408;2023-05-01T10:35:22;100158.06;;;23.49;27.37
37710;BME280;60223;34.854;-92.408;2023-05-01T10:37:50;100160.63;;;23.29;27.56
37710;BME280;60223;34.854;-92.408;2023-05-01T10:47:45;100167.67;;;23.34;27.40
37710;BME280;60223;34.854;-92.408;2023-05-01T10:50:02;100165.62;;;23.11;27.61
37710;BME280;60223;34.854;-92.408;2023-05-01T10:52:19;100169.49;;;23.19;27.49
37710;BME280;60223;34.854;-92.408;2023-05-01T10:54:42;100171.88;;;23.19;27.49
37710;BME280;60223;34.854;-92.408;2023-05-01T10:57:10;100176.08;;;22.89;27.75
37710;BME280;60223;34.854;-92.408;2023-05-01T11:02:00;100176.30;;;23.01;27.37
37710;BME280;60223;34.854;-92.408;2023-05-01T11:04:46;100177.91;;;23.57;27.06
37710;BME280;60223;34.854;-92.408;2023-05-01T11:09:37;100175.87;;;23.54;27.09
37710;BME280;60223;34.854;-92.408;2023-05-01T11:11:49;100180.71;;;23.94;26.66
37710;BME280;60223;34.854;-92.408;2023-05-01T11:14:10;100183.64;;;24.05;26.49
37710;BME280;60223;34.854;-92.408;2023-05-01T11:16:44;100185.60;;;23.20;27.24
37710;BME280;60223;34.854;-92.408;2023-05-01T11:19:01;100190.60;;;23.83;26.70
37710;BME280;60223;34.854;-92.408;2023-05-01T11:21:32;100192.79;;;23.67;27.03
37710;BME280;60223;34.854;-92.408;2023-05-01T11:23:52;100202.39;;;23.12;27.32
37710;BME280;60223;34.854;-92.408;2023-05-01T11:26:19;100200.41;;;23.40;27.02
37710;BME280;60223;34.854;-92.408;2023-05-01T11:28:44;100202.92;;;23.58;27.09
37710;BME280;60223;34.854;-92.408;2023-05-01T11:31:10;100207.33;;;23.23;27.18
37710;BME280;60223;34.854;-92.408;2023-05-01T11:33:36;100206.68;;;23.18;27.20
37710;BME280;60223;34.854;-92.408;2023-05-01T11:36:03;100211.71;;;23.17;27.16
37710;BME280;60223;34.854;-92.408;2023-05-01T11:38:27;100211.48;;;24.14;26.28
37710;BME280;60223;34.854;-92.408;2023-05-01T11:40:57;100218.70;;;23.14;27.16
37710;BME280;60223;34.854;-92.408;2023-05-01T11:43:19;100218.33;;;22.86;27.44
37710;BME280;60223;34.854;-92.408;2023-05-01T11:45:42;100222.03;;;23.11;27.42
37710;BME280;60223;34.854;-92.408;2023-05-01T11:48:15;100227.00;;;22.93;27.34
37710;BME280;60223;34.854;-92.408;2023-05-01T11:50:37;100228.25;;;23.21;27.27
37710;BME280;60223;34.854;-92.408;2023-05-01T11:53:00;100233.01;;;23.42;27.14
37710;BME280;60223;34.854;-92.408;2023-05-01T11:55:32;100236.25;;;23.02;27.19
37710;BME280;60223;34.854;-92.408;2023-05-01T11:57:53;100236.80;;;23.67;26.59
37710;BME280;60223;34.854;-92.408;2023-05-01T12:00:25;100241.20;;;23.25;26.92
37710;BME280;60223;34.854;-92.408;2023-05-01T12:02:54;100247.01;;;23.36;27.05
37710;BME280;60223;34.854;-92.408;2023-05-01T12:05:16;100246.14;;;23.11;27.02
37710;BME280;60223;34.854;-92.408;2023-05-01T12:07:36;100249.49;;;23.38;26.85
37710;BME280;60223;34.854;-92.408;2023-05-01T12:10:01;100249.59;;;24.11;26.13
37710;BME280;60223;34.854;-92.408;2023-05-01T12:12:27;100258.63;;;23.44;26.86
37710;BME280;60223;34.854;-92.408;2023-05-01T12:14:52;100262.75;;;23.04;27.39
37710;BME280;60223;34.854;-92.408;2023-05-01T12:17:19;100265.26;;;23.08;27.43
37710;BME280;60223;34.854;-92.408;2023-05-01T12:19:50;100266.62;;;23.48;27.02
37710;BME280;60223;34.854;-92.408;2023-05-01T12:22:10;100270.28;;;23.20;27.27
37710;BME280;60223;34.854;-92.408;2023-05-01T12:24:34;100276.19;;;23.42;27.06
37710;BME280;60223;34.854;-92.408;2023-05-01T12:27:04;100275.56;;;23.29;27.16
37710;BME280;60223;34.854;-92.408;2023-05-01T12:31:53;100274.52;;;23.08;27.71
37710;BME280;60223;34.854;-92.408;2023-05-01T12:34:18;100280.05;;;23.69;27.86
37710;BME280;60223;34.854;-92.408;2023-05-01T12:36:51;100283.31;;;23.40;27.92
37710;BME280;60223;34.854;-92.408;2023-05-01T12:39:11;100284.96;;;23.79;27.31
37710;BME280;60223;34.854;-92.408;2023-05-01T12:41:36;100288.04;;;23.71;27.45
37710;BME280;60223;34.854;-92.408;2023-05-01T12:44:01;100282.58;;;23.05;27.83